EWG2822 EDDS-LIMC
Flight info
| Callsign | EWG2822 |
|---|---|
| Flight time | 0h 48m |
| Altitude | 21000 |
| Route | ROTWE5B/25 ROTWE Y126 TUBLO N850 NATOR DCT TRA DCT BASGO Z424 AKASU/N0372F190 Z424 RIXUV |
| Aircraft | A319/M-SDE3FGHIRWY/LB1 |
Departure
| Time | 2026-05-06 18:49 |
|---|---|
| Airport | Stuttgart Airport (EDDS) |
Arrival
| Time | 2026-05-06 19:37 |
|---|---|
| Airport | Milan Malpensa International Airport (LIMC) |
| Time | Latitude | Longitude | Altitude | Speed | Heading |
|---|---|---|---|---|---|
| 2026-05-06 18:01 | 48.68885 | 9.19358 | 1315 ft | 0 kts | 344° |
| 2026-05-06 18:36 | 48.68874 | 9.19363 | 1315 ft | 4 kts | 344° |
| 2026-05-06 18:36 | 48.68849 | 9.19374 | 1315 ft | 4 kts | 344° |
| 2026-05-06 18:36 | 48.68827 | 9.19383 | 1314 ft | 4 kts | 0° |
| 2026-05-06 18:36 | 48.68807 | 9.19371 | 1314 ft | 4 kts | 61° |
| 2026-05-06 18:37 | 48.68799 | 9.19344 | 1314 ft | 0 kts | 74° |
| 2026-05-06 18:40 | 48.68800 | 9.19346 | 1314 ft | 2 kts | 74° |
| 2026-05-06 18:40 | 48.68808 | 9.19389 | 1313 ft | 6 kts | 74° |
| 2026-05-06 18:41 | 48.68819 | 9.19449 | 1312 ft | 6 kts | 74° |
| 2026-05-06 18:41 | 48.68833 | 9.19520 | 1311 ft | 9 kts | 74° |
| 2026-05-06 18:41 | 48.68852 | 9.19622 | 1309 ft | 12 kts | 73° |
| 2026-05-06 18:41 | 48.68878 | 9.19756 | 1306 ft | 15 kts | 73° |
| 2026-05-06 18:42 | 48.68928 | 9.19904 | 1304 ft | 16 kts | 59° |
| 2026-05-06 18:42 | 48.68983 | 9.20040 | 1302 ft | 15 kts | 59° |
| 2026-05-06 18:42 | 48.69015 | 9.20186 | 1299 ft | 15 kts | 74° |
| 2026-05-06 18:42 | 48.69047 | 9.20348 | 1292 ft | 17 kts | 74° |
| 2026-05-06 18:43 | 48.69057 | 9.20477 | 1287 ft | 11 kts | 119° |
| 2026-05-06 18:43 | 48.68997 | 9.20572 | 1283 ft | 13 kts | 134° |
| 2026-05-06 18:43 | 48.68964 | 9.20700 | 1280 ft | 14 kts | 72° |
| 2026-05-06 18:43 | 48.68993 | 9.20845 | 1276 ft | 15 kts | 74° |
| 2026-05-06 18:44 | 48.69021 | 9.20997 | 1273 ft | 15 kts | 73° |
| 2026-05-06 18:44 | 48.69052 | 9.21156 | 1272 ft | 16 kts | 74° |
| 2026-05-06 18:44 | 48.69086 | 9.21336 | 1263 ft | 19 kts | 73° |
| 2026-05-06 18:44 | 48.69127 | 9.21552 | 1260 ft | 23 kts | 74° |
| 2026-05-06 18:45 | 48.69175 | 9.21810 | 1252 ft | 27 kts | 74° |
| 2026-05-06 18:45 | 48.69230 | 9.22096 | 1245 ft | 29 kts | 74° |
| 2026-05-06 18:45 | 48.69288 | 9.22389 | 1238 ft | 29 kts | 76° |
| 2026-05-06 18:45 | 48.69323 | 9.22588 | 1246 ft | 29 kts | 74° |
| 2026-05-06 18:46 | 48.69396 | 9.22976 | 1226 ft | 26 kts | 74° |
| 2026-05-06 18:46 | 48.69448 | 9.23243 | 1221 ft | 27 kts | 74° |
| 2026-05-06 18:46 | 48.69498 | 9.23509 | 1215 ft | 27 kts | 74° |
| 2026-05-06 18:46 | 48.69546 | 9.23763 | 1210 ft | 24 kts | 74° |
| 2026-05-06 18:47 | 48.69584 | 9.23962 | 1206 ft | 18 kts | 74° |
| 2026-05-06 18:47 | 48.69611 | 9.24136 | 1201 ft | 15 kts | 95° |
| 2026-05-06 18:47 | 48.69561 | 9.24282 | 1194 ft | 13 kts | 131° |
| 2026-05-06 18:47 | 48.69474 | 9.24327 | 1190 ft | 13 kts | 164° |
| 2026-05-06 18:48 | 48.69401 | 9.24353 | 1190 ft | 7 kts | 185° |
| 2026-05-06 18:48 | 48.69385 | 9.24293 | 1191 ft | 11 kts | 255° |
| 2026-05-06 18:48 | 48.69306 | 9.23876 | 1200 ft | 71 kts | 254° |
| 2026-05-06 18:48 | 48.69120 | 9.22894 | 1219 ft | 122 kts | 254° |
| 2026-05-06 18:49 | 48.68842 | 9.21451 | 1385 ft | 152 kts | 252° |
| 2026-05-06 18:49 | 48.68650 | 9.20433 | 1796 ft | 152 kts | 253° |
| 2026-05-06 18:49 | 48.68366 | 9.18885 | 2444 ft | 155 kts | 253° |
| 2026-05-06 18:49 | 48.68071 | 9.17209 | 2771 ft | 175 kts | 255° |
| 2026-05-06 18:50 | 48.67728 | 9.15327 | 3078 ft | 197 kts | 254° |
| 2026-05-06 18:50 | 48.67328 | 9.13197 | 3475 ft | 224 kts | 254° |
| 2026-05-06 18:50 | 48.66879 | 9.10827 | 4105 ft | 242 kts | 254° |
| 2026-05-06 18:50 | 48.66404 | 9.08342 | 5019 ft | 249 kts | 254° |
| 2026-05-06 18:51 | 48.65912 | 9.05797 | 5969 ft | 254 kts | 253° |
| 2026-05-06 18:51 | 48.65407 | 9.03200 | 6859 ft | 260 kts | 253° |
| 2026-05-06 18:51 | 48.64890 | 9.00552 | 7732 ft | 266 kts | 253° |
| 2026-05-06 18:51 | 48.64362 | 8.97850 | 8631 ft | 270 kts | 253° |
| 2026-05-06 18:52 | 48.63624 | 8.95265 | 9492 ft | 275 kts | 235° |
| 2026-05-06 18:52 | 48.62293 | 8.93146 | 10186 ft | 286 kts | 223° |
| 2026-05-06 18:52 | 48.60764 | 8.91041 | 10444 ft | 309 kts | 222° |
| 2026-05-06 18:52 | 48.59121 | 8.88813 | 10925 ft | 322 kts | 222° |
| 2026-05-06 18:53 | 48.57443 | 8.86548 | 11648 ft | 326 kts | 222° |
| 2026-05-06 18:53 | 48.55746 | 8.84256 | 12407 ft | 329 kts | 222° |
| 2026-05-06 18:53 | 48.54039 | 8.81945 | 13157 ft | 331 kts | 221° |
| 2026-05-06 18:53 | 48.52316 | 8.79614 | 13873 ft | 334 kts | 221° |
| 2026-05-06 18:54 | 48.50580 | 8.77260 | 14509 ft | 337 kts | 222° |
| 2026-05-06 18:54 | 48.48828 | 8.74884 | 15131 ft | 341 kts | 222° |
| 2026-05-06 18:54 | 48.47050 | 8.72477 | 15745 ft | 345 kts | 222° |
| 2026-05-06 18:54 | 48.45254 | 8.70053 | 16355 ft | 349 kts | 222° |
| 2026-05-06 18:55 | 48.43436 | 8.67599 | 16966 ft | 353 kts | 222° |
| 2026-05-06 18:55 | 48.41600 | 8.65117 | 17576 ft | 357 kts | 222° |
| 2026-05-06 18:55 | 48.39746 | 8.62609 | 18214 ft | 360 kts | 222° |
| 2026-05-06 18:55 | 48.37873 | 8.60080 | 18745 ft | 364 kts | 221° |
| 2026-05-06 18:56 | 48.35971 | 8.57517 | 19239 ft | 369 kts | 221° |
| 2026-05-06 18:56 | 48.34050 | 8.54933 | 19824 ft | 372 kts | 221° |
| 2026-05-06 18:56 | 48.32113 | 8.52332 | 20431 ft | 375 kts | 221° |
| 2026-05-06 18:56 | 48.30158 | 8.49713 | 20809 ft | 378 kts | 221° |
| 2026-05-06 18:57 | 48.28198 | 8.47091 | 20893 ft | 373 kts | 221° |
| 2026-05-06 18:57 | 48.26126 | 8.44793 | 20907 ft | 368 kts | 207° |
| 2026-05-06 18:57 | 48.23769 | 8.43535 | 20902 ft | 367 kts | 190° |
| 2026-05-06 18:57 | 48.21230 | 8.43425 | 20908 ft | 366 kts | 173° |
| 2026-05-06 18:58 | 48.18685 | 8.43918 | 20916 ft | 369 kts | 173° |
| 2026-05-06 18:58 | 48.16132 | 8.44266 | 20912 ft | 368 kts | 179° |
| 2026-05-06 18:58 | 48.13576 | 8.44244 | 20908 ft | 367 kts | 180° |
| 2026-05-06 18:58 | 48.11029 | 8.44216 | 20912 ft | 364 kts | 181° |
| 2026-05-06 18:59 | 48.08506 | 8.44184 | 20908 ft | 361 kts | 182° |
| 2026-05-06 18:59 | 48.06001 | 8.44151 | 20915 ft | 361 kts | 181° |
| 2026-05-06 18:59 | 48.03483 | 8.44118 | 20912 ft | 361 kts | 181° |
| 2026-05-06 18:59 | 48.00969 | 8.44085 | 20930 ft | 364 kts | 181° |
| 2026-05-06 19:00 | 47.98431 | 8.44050 | 20922 ft | 364 kts | 182° |
| 2026-05-06 19:00 | 47.95913 | 8.44018 | 20920 ft | 362 kts | 181° |
| 2026-05-06 19:00 | 47.93389 | 8.43989 | 20923 ft | 361 kts | 182° |
| 2026-05-06 19:00 | 47.90887 | 8.43963 | 20933 ft | 360 kts | 183° |
| 2026-05-06 19:01 | 47.88383 | 8.43937 | 20931 ft | 361 kts | 181° |
| 2026-05-06 19:01 | 47.85876 | 8.43909 | 20926 ft | 360 kts | 182° |
| 2026-05-06 19:01 | 47.83366 | 8.43880 | 20928 ft | 361 kts | 182° |
| 2026-05-06 19:01 | 47.80847 | 8.43850 | 20944 ft | 362 kts | 182° |
| 2026-05-06 19:02 | 47.78331 | 8.43818 | 20934 ft | 361 kts | 182° |
| 2026-05-06 19:02 | 47.75814 | 8.43784 | 20936 ft | 362 kts | 182° |
| 2026-05-06 19:02 | 47.73290 | 8.43749 | 20931 ft | 364 kts | 182° |
| 2026-05-06 19:02 | 47.70755 | 8.43712 | 20944 ft | 365 kts | 182° |
| 2026-05-06 19:03 | 47.68212 | 8.43681 | 20940 ft | 365 kts | 181° |
| 2026-05-06 19:03 | 47.65675 | 8.43705 | 20939 ft | 364 kts | 180° |
| 2026-05-06 19:03 | 47.63142 | 8.43771 | 20943 ft | 364 kts | 180° |
| 2026-05-06 19:03 | 47.60607 | 8.43855 | 20944 ft | 364 kts | 180° |
| 2026-05-06 19:04 | 47.58068 | 8.43945 | 20944 ft | 364 kts | 180° |
| 2026-05-06 19:04 | 47.55534 | 8.44031 | 20945 ft | 364 kts | 180° |
| 2026-05-06 19:04 | 47.53002 | 8.44107 | 20955 ft | 364 kts | 180° |
| 2026-05-06 19:04 | 47.50469 | 8.44173 | 20945 ft | 364 kts | 180° |
| 2026-05-06 19:05 | 47.47941 | 8.44235 | 20951 ft | 364 kts | 180° |
| 2026-05-06 19:05 | 47.45412 | 8.44295 | 20962 ft | 363 kts | 180° |
| 2026-05-06 19:05 | 47.42892 | 8.44359 | 20968 ft | 362 kts | 180° |
| 2026-05-06 19:05 | 47.40377 | 8.44424 | 20966 ft | 361 kts | 180° |
| 2026-05-06 19:06 | 47.37868 | 8.44485 | 20965 ft | 361 kts | 180° |
| 2026-05-06 19:06 | 47.35392 | 8.44546 | 20964 ft | 360 kts | 180° |
| 2026-05-06 19:06 | 47.32886 | 8.44610 | 20960 ft | 360 kts | 180° |
| 2026-05-06 19:06 | 47.30382 | 8.44674 | 20956 ft | 360 kts | 180° |
| 2026-05-06 19:07 | 47.27881 | 8.44737 | 20955 ft | 359 kts | 180° |
| 2026-05-06 19:07 | 47.25377 | 8.44800 | 20957 ft | 359 kts | 180° |
| 2026-05-06 19:07 | 47.22887 | 8.44863 | 20963 ft | 358 kts | 180° |
| 2026-05-06 19:07 | 47.20398 | 8.44924 | 20954 ft | 357 kts | 180° |
| 2026-05-06 19:08 | 47.17910 | 8.44987 | 20951 ft | 357 kts | 180° |
| 2026-05-06 19:08 | 47.15427 | 8.45049 | 20954 ft | 357 kts | 180° |
| 2026-05-06 19:08 | 47.12947 | 8.45110 | 20941 ft | 356 kts | 180° |
| 2026-05-06 19:08 | 47.10462 | 8.45170 | 20938 ft | 356 kts | 180° |
| 2026-05-06 19:09 | 47.07982 | 8.45231 | 20933 ft | 356 kts | 180° |
| 2026-05-06 19:09 | 47.05505 | 8.45294 | 20935 ft | 356 kts | 180° |
| 2026-05-06 19:09 | 47.03029 | 8.45357 | 20941 ft | 355 kts | 180° |
| 2026-05-06 19:09 | 47.00562 | 8.45422 | 20944 ft | 355 kts | 180° |
| 2026-05-06 19:10 | 46.98094 | 8.45486 | 20945 ft | 354 kts | 180° |
| 2026-05-06 19:10 | 46.95636 | 8.45547 | 20943 ft | 353 kts | 180° |
| 2026-05-06 19:10 | 46.93208 | 8.45606 | 20940 ft | 353 kts | 180° |
| 2026-05-06 19:10 | 46.90749 | 8.45667 | 20940 ft | 353 kts | 180° |
| 2026-05-06 19:11 | 46.88291 | 8.45728 | 20939 ft | 354 kts | 180° |
| 2026-05-06 19:11 | 46.85833 | 8.45787 | 20940 ft | 353 kts | 181° |
| 2026-05-06 19:11 | 46.83376 | 8.45843 | 20936 ft | 353 kts | 181° |
| 2026-05-06 19:11 | 46.80921 | 8.45898 | 20940 ft | 353 kts | 181° |
| 2026-05-06 19:12 | 46.78468 | 8.45957 | 20938 ft | 353 kts | 180° |
| 2026-05-06 19:12 | 46.76016 | 8.46022 | 20938 ft | 352 kts | 180° |
| 2026-05-06 19:12 | 46.73567 | 8.46085 | 20949 ft | 352 kts | 180° |
| 2026-05-06 19:12 | 46.71123 | 8.46150 | 20940 ft | 351 kts | 180° |
| 2026-05-06 19:13 | 46.68680 | 8.46213 | 20936 ft | 351 kts | 180° |
| 2026-05-06 19:13 | 46.66230 | 8.46272 | 20950 ft | 352 kts | 180° |
| 2026-05-06 19:13 | 46.63781 | 8.46330 | 20947 ft | 352 kts | 181° |
| 2026-05-06 19:13 | 46.61333 | 8.46390 | 20937 ft | 352 kts | 181° |
| 2026-05-06 19:14 | 46.58884 | 8.46452 | 20944 ft | 352 kts | 181° |
| 2026-05-06 19:14 | 46.56434 | 8.46516 | 20935 ft | 352 kts | 181° |
| 2026-05-06 19:14 | 46.53986 | 8.46574 | 20934 ft | 352 kts | 181° |
| 2026-05-06 19:14 | 46.51538 | 8.46630 | 20931 ft | 352 kts | 181° |
| 2026-05-06 19:15 | 46.49088 | 8.46693 | 20942 ft | 352 kts | 181° |
| 2026-05-06 19:15 | 46.46637 | 8.46756 | 20935 ft | 352 kts | 181° |
| 2026-05-06 19:15 | 46.44221 | 8.46816 | 20919 ft | 352 kts | 181° |
| 2026-05-06 19:15 | 46.41772 | 8.46875 | 20933 ft | 351 kts | 181° |
| 2026-05-06 19:16 | 46.39332 | 8.46932 | 20944 ft | 351 kts | 181° |
| 2026-05-06 19:16 | 46.36895 | 8.46991 | 20949 ft | 350 kts | 181° |
| 2026-05-06 19:16 | 46.34463 | 8.47050 | 20949 ft | 349 kts | 181° |
| 2026-05-06 19:16 | 46.32036 | 8.47107 | 20946 ft | 349 kts | 181° |
| 2026-05-06 19:17 | 46.29611 | 8.47165 | 20947 ft | 349 kts | 181° |
| 2026-05-06 19:17 | 46.27182 | 8.47231 | 20945 ft | 349 kts | 180° |
| 2026-05-06 19:17 | 46.24760 | 8.47435 | 20929 ft | 349 kts | 178° |
| 2026-05-06 19:17 | 46.22345 | 8.47764 | 20933 ft | 348 kts | 176° |
| 2026-05-06 19:18 | 46.19933 | 8.48150 | 20935 ft | 350 kts | 175° |
| 2026-05-06 19:18 | 46.17513 | 8.48548 | 20936 ft | 349 kts | 176° |
| 2026-05-06 19:18 | 46.15107 | 8.48937 | 20848 ft | 346 kts | 176° |
| 2026-05-06 19:18 | 46.12739 | 8.49308 | 20586 ft | 339 kts | 176° |
| 2026-05-06 19:19 | 46.10434 | 8.49933 | 20330 ft | 337 kts | 167° |
| 2026-05-06 19:19 | 46.08214 | 8.51052 | 20074 ft | 338 kts | 163° |
| 2026-05-06 19:19 | 46.06013 | 8.52241 | 19823 ft | 337 kts | 163° |
| 2026-05-06 19:19 | 46.03813 | 8.53422 | 19561 ft | 337 kts | 163° |
| 2026-05-06 19:20 | 46.01620 | 8.54598 | 19306 ft | 336 kts | 163° |
| 2026-05-06 19:20 | 45.99457 | 8.55759 | 19058 ft | 334 kts | 163° |
| 2026-05-06 19:20 | 45.97283 | 8.56927 | 18803 ft | 334 kts | 163° |
| 2026-05-06 19:20 | 45.95107 | 8.58094 | 18563 ft | 334 kts | 163° |
| 2026-05-06 19:21 | 45.92940 | 8.59257 | 18230 ft | 331 kts | 163° |
| 2026-05-06 19:21 | 45.90795 | 8.60422 | 17723 ft | 329 kts | 161° |
| 2026-05-06 19:21 | 45.88802 | 8.62067 | 17197 ft | 333 kts | 146° |
| 2026-05-06 19:21 | 45.86998 | 8.64155 | 16691 ft | 333 kts | 144° |
| 2026-05-06 19:22 | 45.85203 | 8.66243 | 16187 ft | 332 kts | 144° |
| 2026-05-06 19:22 | 45.83411 | 8.68324 | 15866 ft | 332 kts | 144° |
| 2026-05-06 19:22 | 45.81610 | 8.70412 | 15587 ft | 333 kts | 144° |
| 2026-05-06 19:22 | 45.79808 | 8.72495 | 15335 ft | 333 kts | 144° |
| 2026-05-06 19:23 | 45.78003 | 8.74577 | 15086 ft | 332 kts | 144° |
| 2026-05-06 19:23 | 45.76174 | 8.76571 | 14903 ft | 329 kts | 152° |
| 2026-05-06 19:23 | 45.74179 | 8.78138 | 14890 ft | 327 kts | 155° |
| 2026-05-06 19:23 | 45.72173 | 8.79680 | 14892 ft | 328 kts | 155° |
| 2026-05-06 19:24 | 45.70162 | 8.81229 | 14893 ft | 328 kts | 155° |
| 2026-05-06 19:24 | 45.68157 | 8.82774 | 14892 ft | 328 kts | 155° |
| 2026-05-06 19:24 | 45.66148 | 8.84317 | 14893 ft | 328 kts | 155° |
| 2026-05-06 19:24 | 45.64140 | 8.85858 | 14892 ft | 328 kts | 155° |
| 2026-05-06 19:25 | 45.62118 | 8.87359 | 14883 ft | 326 kts | 160° |
| 2026-05-06 19:25 | 45.59946 | 8.88234 | 14638 ft | 323 kts | 171° |
| 2026-05-06 19:25 | 45.57752 | 8.88852 | 14243 ft | 320 kts | 172° |
| 2026-05-06 19:25 | 45.55603 | 8.89426 | 13821 ft | 318 kts | 172° |
| 2026-05-06 19:26 | 45.53431 | 8.89997 | 13343 ft | 316 kts | 172° |
| 2026-05-06 19:26 | 45.51286 | 8.90563 | 12857 ft | 314 kts | 172° |
| 2026-05-06 19:26 | 45.49136 | 8.91134 | 12391 ft | 313 kts | 172° |
| 2026-05-06 19:26 | 45.47001 | 8.91707 | 11907 ft | 310 kts | 172° |
| 2026-05-06 19:27 | 45.44898 | 8.92275 | 11206 ft | 307 kts | 172° |
| 2026-05-06 19:27 | 45.42804 | 8.92843 | 10500 ft | 305 kts | 172° |
| 2026-05-06 19:27 | 45.40734 | 8.93406 | 9863 ft | 301 kts | 172° |
| 2026-05-06 19:27 | 45.38673 | 8.93967 | 9291 ft | 301 kts | 172° |
| 2026-05-06 19:28 | 45.36635 | 8.94519 | 8945 ft | 296 kts | 172° |
| 2026-05-06 19:28 | 45.34624 | 8.95062 | 8896 ft | 289 kts | 172° |
| 2026-05-06 19:28 | 45.32701 | 8.95586 | 8897 ft | 277 kts | 172° |
| 2026-05-06 19:28 | 45.30853 | 8.96086 | 8699 ft | 271 kts | 173° |
| 2026-05-06 19:29 | 45.28998 | 8.96108 | 8332 ft | 263 kts | 193° |
| 2026-05-06 19:29 | 45.27343 | 8.95145 | 7760 ft | 257 kts | 215° |
| 2026-05-06 19:29 | 45.26111 | 8.93346 | 7213 ft | 255 kts | 236° |
| 2026-05-06 19:29 | 45.25472 | 8.91005 | 6670 ft | 258 kts | 258° |
| 2026-05-06 19:30 | 45.25543 | 8.88476 | 6363 ft | 258 kts | 282° |
| 2026-05-06 19:30 | 45.26310 | 8.86137 | 6193 ft | 266 kts | 304° |
| 2026-05-06 19:30 | 45.27687 | 8.84414 | 5988 ft | 265 kts | 329° |
| 2026-05-06 19:30 | 45.29381 | 8.83510 | 5926 ft | 256 kts | 341° |
| 2026-05-06 19:31 | 45.31066 | 8.82733 | 5868 ft | 253 kts | 339° |
| 2026-05-06 19:31 | 45.32696 | 8.81814 | 5807 ft | 252 kts | 340° |
| 2026-05-06 19:31 | 45.35970 | 8.80772 | 5708 ft | 230 kts | 348° |
| 2026-05-06 19:32 | 45.37517 | 8.80359 | 5498 ft | 223 kts | 347° |
| 2026-05-06 19:32 | 45.39034 | 8.79946 | 5223 ft | 221 kts | 347° |
| 2026-05-06 19:32 | 45.40534 | 8.79535 | 4937 ft | 219 kts | 347° |
| 2026-05-06 19:32 | 45.42022 | 8.79127 | 4646 ft | 217 kts | 347° |
| 2026-05-06 19:33 | 45.43498 | 8.78722 | 4318 ft | 215 kts | 347° |
| 2026-05-06 19:33 | 45.44959 | 8.78322 | 4027 ft | 213 kts | 348° |
| 2026-05-06 19:33 | 45.46409 | 8.77924 | 3744 ft | 211 kts | 348° |
| 2026-05-06 19:33 | 45.47847 | 8.77529 | 3460 ft | 210 kts | 348° |
| 2026-05-06 19:34 | 45.49255 | 8.77142 | 3208 ft | 204 kts | 349° |
| 2026-05-06 19:34 | 45.50631 | 8.76764 | 2900 ft | 200 kts | 349° |
| 2026-05-06 19:34 | 45.51965 | 8.76394 | 2583 ft | 190 kts | 350° |
| 2026-05-06 19:34 | 45.53198 | 8.76052 | 2373 ft | 166 kts | 351° |
| 2026-05-06 19:35 | 45.54261 | 8.75766 | 2114 ft | 148 kts | 351° |
| 2026-05-06 19:35 | 45.55213 | 8.75503 | 1888 ft | 135 kts | 351° |
| 2026-05-06 19:35 | 45.56124 | 8.75246 | 1665 ft | 132 kts | 352° |
| 2026-05-06 19:35 | 45.57011 | 8.75011 | 1532 ft | 129 kts | 352° |
| 2026-05-06 19:36 | 45.57895 | 8.74769 | 1416 ft | 130 kts | 350° |
| 2026-05-06 19:36 | 45.58782 | 8.74514 | 1290 ft | 131 kts | 350° |
| 2026-05-06 19:36 | 45.59682 | 8.74275 | 1107 ft | 131 kts | 349° |
| 2026-05-06 19:36 | 45.60568 | 8.74029 | 938 ft | 127 kts | 348° |
| 2026-05-06 19:37 | 45.61422 | 8.73795 | 766 ft | 124 kts | 349° |
| 2026-05-06 19:37 | 45.62208 | 8.73574 | 717 ft | 100 kts | 348° |
| 2026-05-06 19:37 | 45.62725 | 8.73433 | 719 ft | 51 kts | 349° |
| 2026-05-06 19:37 | 45.62917 | 8.73378 | 716 ft | 35 kts | 348° |
| 2026-05-06 19:38 | 45.63099 | 8.73289 | 714 ft | 23 kts | 329° |
| 2026-05-06 19:38 | 45.63209 | 8.73163 | 715 ft | 16 kts | 315° |
| 2026-05-06 19:38 | 45.63281 | 8.73028 | 717 ft | 19 kts | 304° |
| 2026-05-06 19:38 | 45.63360 | 8.72862 | 717 ft | 22 kts | 304° |
| 2026-05-06 19:39 | 45.63410 | 8.72717 | 717 ft | 13 kts | 282° |
| 2026-05-06 19:39 | 45.63402 | 8.72572 | 718 ft | 16 kts | 259° |
| 2026-05-06 19:39 | 45.63379 | 8.72405 | 717 ft | 19 kts | 259° |
| 2026-05-06 19:39 | 45.63352 | 8.72205 | 715 ft | 22 kts | 259° |
| 2026-05-06 19:40 | 45.63328 | 8.72033 | 718 ft | 12 kts | 259° |
| 2026-05-06 19:40 | 45.63314 | 8.71918 | 718 ft | 11 kts | 259° |
| 2026-05-06 19:40 | 45.63300 | 8.71811 | 717 ft | 11 kts | 259° |
| 2026-05-06 19:40 | 45.63285 | 8.71708 | 717 ft | 11 kts | 258° |
| 2026-05-06 19:41 | 45.63231 | 8.71672 | 720 ft | 9 kts | 172° |
| 2026-05-06 19:41 | 45.63162 | 8.71691 | 719 ft | 11 kts | 169° |
| 2026-05-06 19:41 | 45.63080 | 8.71714 | 718 ft | 13 kts | 169° |
| 2026-05-06 19:41 | 45.62982 | 8.71741 | 719 ft | 15 kts | 169° |
| 2026-05-06 19:42 | 45.62869 | 8.71773 | 716 ft | 17 kts | 168° |
| 2026-05-06 19:42 | 45.62747 | 8.71806 | 718 ft | 18 kts | 169° |
| 2026-05-06 19:42 | 45.62663 | 8.71818 | 716 ft | 10 kts | 200° |
| 2026-05-06 19:42 | 45.62639 | 8.71730 | 718 ft | 10 kts | 261° |
| 2026-05-06 19:43 | 45.62626 | 8.71636 | 719 ft | 10 kts | 259° |
| 2026-05-06 19:43 | 45.62614 | 8.71543 | 716 ft | 9 kts | 260° |
| 2026-05-06 19:43 | 45.62588 | 8.71513 | 716 ft | 5 kts | 180° |
| 2026-05-06 19:43 | 45.62559 | 8.71521 | 716 ft | 4 kts | 168° |
| 2026-05-06 19:44 | 45.62533 | 8.71528 | 719 ft | 4 kts | 170° |
| 2026-05-06 19:44 | 45.62525 | 8.71529 | 718 ft | 0 kts | 169° |